sensor_id;sensor_type;location;lat;lon;timestamp;temperature;humidity
20996;DHT22;10656;52.200;21.052;2023-06-10T00:10:18;18.90;94.70
20996;DHT22;10656;52.200;21.052;2023-06-10T00:35:58;18.80;90.00
20996;DHT22;10656;52.200;21.052;2023-06-10T00:43:22;18.70;88.10
20996;DHT22;10656;52.200;21.052;2023-06-10T01:42:07;18.00;78.00
20996;DHT22;10656;52.200;21.052;2023-06-10T02:07:25;17.70;77.60
20996;DHT22;10656;52.200;21.052;2023-06-10T02:32:38;17.30;78.90
20996;DHT22;10656;52.200;21.052;2023-06-10T02:35:32;17.20;79.50
20996;DHT22;10656;52.200;21.052;2023-06-10T02:40:18;17.20;79.80
20996;DHT22;10656;52.200;21.052;2023-06-10T04:09:12;17.40;83.30
20996;DHT22;10656;52.200;21.052;2023-06-10T04:34:28;18.10;82.10
20996;DHT22;10656;52.200;21.052;2023-06-10T05:04:43;19.10;81.10
20996;DHT22;10656;52.200;21.052;2023-06-10T05:25:05;19.60;80.00
20996;DHT22;10656;52.200;21.052;2023-06-10T05:50:21;19.60;80.70
20996;DHT22;10656;52.200;21.052;2023-06-10T06:10:12;20.00;81.50
20996;DHT22;10656;52.200;21.052;2023-06-10T06:40:36;20.90;78.30
20996;DHT22;10656;52.200;21.052;2023-06-10T06:56:37;21.80;76.10
20996;DHT22;10656;52.200;21.052;2023-06-10T07:00:53;21.80;73.90
20996;DHT22;10656;52.200;21.052;2023-06-10T07:51:58;22.90;68.10
20996;DHT22;10656;52.200;21.052;2023-06-10T08:12:14;23.40;63.20
20996;DHT22;10656;52.200;21.052;2023-06-10T08:37:29;23.50;61.10
20996;DHT22;10656;52.200;21.052;2023-06-10T08:58:07;23.30;55.60
20996;DHT22;10656;52.200;21.052;2023-06-10T09:23:24;23.20;51.90
20996;DHT22;10656;52.200;21.052;2023-06-10T09:53:51;23.60;50.10
20996;DHT22;10656;52.200;21.052;2023-06-10T10:24:05;23.30;46.20
20996;DHT22;10656;52.200;21.052;2023-06-10T10:44:38;23.50;47.30
20996;DHT22;10656;52.200;21.052;2023-06-10T11:10:07;23.80;46.50
20996;DHT22;10656;52.200;21.052;2023-06-10T11:35:11;24.00;46.20
20996;DHT22;10656;52.200;21.052;2023-06-10T12:00:50;24.10;47.60
20996;DHT22;10656;52.200;21.052;2023-06-10T12:25:55;24.50;49.30
20996;DHT22;10656;52.200;21.052;2023-06-10T12:51:17;24.90;49.50
20996;DHT22;10656;52.200;21.052;2023-06-10T13:11:29;25.30;49.70
20996;DHT22;10656;52.200;21.052;2023-06-10T14:02:18;26.50;50.70
20996;DHT22;10656;52.200;21.052;2023-06-10T14:32:35;25.30;50.50
20996;DHT22;10656;52.200;21.052;2023-06-10T14:58:34;26.80;50.30
20996;DHT22;10656;52.200;21.052;2023-06-10T15:02:39;25.90;50.70
20996;DHT22;10656;52.200;21.052;2023-06-10T15:23:28;26.40;49.80
20996;DHT22;10656;52.200;21.052;2023-06-10T15:48:58;25.60;52.70
20996;DHT22;10656;52.200;21.052;2023-06-10T16:19:01;23.60;53.40
20996;DHT22;10656;52.200;21.052;2023-06-10T17:10:06;23.30;54.40
20996;DHT22;10656;52.200;21.052;2023-06-10T17:35:21;23.50;53.70
20996;DHT22;10656;52.200;21.052;2023-06-10T18:05:20;22.30;73.60
20996;DHT22;10656;52.200;21.052;2023-06-10T18:26:06;21.40;80.90
20996;DHT22;10656;52.200;21.052;2023-06-10T19:11:45;20.10;86.30
20996;DHT22;10656;52.200;21.052;2023-06-10T19:47:13;19.80;88.60
20996;DHT22;10656;52.200;21.052;2023-06-10T20:17:29;18.90;91.80
20996;DHT22;10656;52.200;21.052;2023-06-10T20:42:38;18.60;93.10
20996;DHT22;10656;52.200;21.052;2023-06-10T21:02:58;18.40;94.60
20996;DHT22;10656;52.200;21.052;2023-06-10T21:28:30;18.60;93.90
20996;DHT22;10656;52.200;21.052;2023-06-10T21:54:04;18.20;94.00
20996;DHT22;10656;52.200;21.052;2023-06-10T22:29:33;17.70;93.40
20996;DHT22;10656;52.200;21.052;2023-06-10T23:05:07;17.10;89.90
20996;DHT22;10656;52.200;21.052;2023-06-10T23:29:45;16.90;88.40
